CYIO

Details ICAO CYIO (YIO)
Name POND INLET
Region Canada
Timezone America/Iqaluit (UTC-4.0)
Plans Departing 12
Arriving 18
Stats Elevation 181 ft / 55 m (AMSL)
Location 72.683334° -77.966664°
Runways 1
Magnetic Variation 36.444° W
Sunrise Unknown / Unknown
Sunset Unknown / Unknown
Advertisement - Login to hide

Runways

ID Width Length Bearing (true) Bearing (mag) Surface Threshold Offset Overrun Length
02T 100 ft / 30 m 3,986 ft / 1,215 m 22.99° 59.43° Gravel 0 ft / 0 m 0 ft / 0 m
20T 100 ft / 30 m 3,986 ft / 1,215 m 203.00° 239.44° Gravel 0 ft / 0 m 0 ft / 0 m

Map

Weather


0- 5 10 15 20 25 30 35+ Temperature / ° C

Clouds and Precipitation
Forecast for 2018-05-20 18:00 UTC. Updated 5 hours ago

Ground ~20,000 ft ~40,000 ft Winds

METAR

CYIO 202200Z AUTO 20003KT 9SM OVC050 M07/M10 A2974 RMK SLP080

TAF

TAF CYIO 201838Z 2019/2107 VRB03KT P6SM -SN BKN050 TEMPO 2019/2107 P6SM NSW SCT050 RMK FCST BASED ON AUTO OBS. NXT FCST BY 210100Z

Frequencies

Recorded 128.30 MHz AWOS
Warning: Do not use this data for real-world aviation or navigation. No guarantee of current accuracy is given.